Time,TemperatureF,DewpointF,PressureIn,WindDirection,WindDirectionDegrees,WindSpeedMPH,WindSpeedGustMPH,Humidity,HourlyPrecipIn,Conditions,Clouds,dailyrainin,SoftwareType,DateUTC
2013-03-31 00:00:00,74.8,20.7,30.07,South,183,7.6,8.1,13,0.00,,---,0.00,VWS V14.00,2013-03-31 07:00:00,
2013-03-31 00:01:00,74.8,20.7,30.07,SSE,167,8.3,8.7,13,0.00,,---,0.00,VWS V14.00,2013-03-31 07:01:00,
2013-03-31 00:02:00,74.8,20.7,30.07,South,186,5.4,8.3,13,0.00,,---,0.00,VWS V14.00,2013-03-31 07:02:00,
2013-03-31 00:03:00,56.7,16.1,30.07,SSW,193,0.0,0.0,20,0.00,,---,0.00,VWS V14.00,2013-03-31 07:03:00,
2013-03-31 00:04:00,74.8,20.7,30.07,SW,227,11.0,11.0,13,0.00,,---,0.00,VWS V14.00,2013-03-31 07:04:00,
2013-03-31 00:05:00,74.8,20.7,30.07,South,177,13.2,13.2,13,0.00,,---,0.00,VWS V14.00,2013-03-31 07:05:00,
2013-03-31 00:06:00,74.8,20.7,30.07,South,189,7.6,13.2,13,0.00,,---,0.00,VWS V14.00,2013-03-31 07:06:00,
2013-03-31 00:07:00,74.8,20.7,30.07,SSW,203,8.3,8.7,13,0.00,,---,0.00,VWS V14.00,2013-03-31 07:07:00,
2013-03-31 00:08:00,56.7,16.1,30.07,SSW,194,0.0,0.0,20,0.00,,---,0.00,VWS V14.00,2013-03-31 07:08:00,
2013-03-31 00:09:00,74.7,20.6,30.07,South,184,4.0,7.6,13,0.00,,---,0.00,VWS V14.00,2013-03-31 07:09:00,
2013-03-31 00:10:00,74.7,20.6,30.07,South,184,4.0,7.6,13,0.00,,---,0.00,VWS V14.00,2013-03-31 07:10:00,
2013-03-31 00:11:00,74.7,20.6,30.07,South,173,3.6,4.0,13,0.00,,---,0.00,VWS V14.00,2013-03-31 07:11:00,
2013-03-31 00:12:00,74.7,20.6,30.07,SSE,155,6.7,8.7,13,0.00,,---,0.00,VWS V14.00,2013-03-31 07:12:00,
2013-03-31 00:13:00,56.5,15.9,30.07,SSW,193,0.0,0.0,20,0.00,,---,0.00,VWS V14.00,2013-03-31 07:13:00,
2013-03-31 00:14:00,74.8,20.7,30.07,SE,145,11.0,11.0,13,0.00,,---,0.00,VWS V14.00,2013-03-31 07:14:00,
2013-03-31 00:15:00,74.8,20.7,30.07,SSE,152,7.6,11.0,13,0.00,,---,0.00,VWS V14.00,2013-03-31 07:15:00,
2013-03-31 00:16:00,74.8,20.7,30.07,SSW,211,10.1,11.9,13,0.00,,---,0.00,VWS V14.00,2013-03-31 07:16:00,
2013-03-31 00:17:00,74.8,20.7,30.07,South,186,8.3,8.7,13,0.00,,---,0.00,VWS V14.00,2013-03-31 07:17:00,
2013-03-31 00:18:00,56.3,15.8,30.07,SSW,193,0.0,0.0,20,0.00,,---,0.00,VWS V14.00,2013-03-31 07:18:00,
2013-03-31 00:19:00,75.0,20.9,30.07,SSE,161,5.8,7.6,13,0.00,,---,0.00,VWS V14.00,2013-03-31 07:19:00,
2013-03-31 00:20:00,75.0,20.9,30.07,South,184,10.1,10.1,13,0.00,,---,0.00,VWS V14.00,2013-03-31 07:20:00,
2013-03-31 00:21:00,75.0,20.9,30.07,South,172,5.4,10.1,13,0.00,,---,0.00,VWS V14.00,2013-03-31 07:21:00,
2013-03-31 00:22:00,75.2,21.0,30.07,SSE,163,8.3,8.3,13,0.00,,---,0.00,VWS V14.00,2013-03-31 07:22:00,
2013-03-31 00:23:00,56.5,15.9,30.07,SSW,193,0.0,0.0,20,0.00,,---,0.00,VWS V14.00,2013-03-31 07:23:00,
2013-03-31 00:24:00,75.2,21.0,30.07,SSE,152,8.7,8.7,13,0.00,,---,0.00,VWS V14.00,2013-03-31 07:24:00,
2013-03-31 00:25:00,75.2,21.0,30.07,SE,127,6.3,6.3,13,0.00,,---,0.00,VWS V14.00,2013-03-31 07:25:00,
2013-03-31 00:26:00,75.4,21.2,30.07,South,176,8.1,13.2,13,0.00,,---,0.00,VWS V14.00,2013-03-31 07:26:00,
2013-03-31 00:27:00,75.4,21.2,30.07,SSE,164,8.1,13.2,13,0.00,,---,0.00,VWS V14.00,2013-03-31 07:27:00,
2013-03-31 00:28:00,56.8,16.2,30.07,SSW,193,0.0,0.0,20,0.00,,---,0.00,VWS V14.00,2013-03-31 07:28:00,
2013-03-31 00:29:00,75.4,21.2,30.07,South,191,11.0,11.0,13,0.00,,---,0.00,VWS V14.00,2013-03-31 07:29:00,
2013-03-31 00:30:00,75.2,21.0,30.07,SSE,158,12.8,17.4,13,0.00,,---,0.00,VWS V14.00,2013-03-31 07:30:00,
2013-03-31 00:31:00,75.2,21.0,30.07,SSE,160,8.3,15.0,13,0.00,,---,0.00,VWS V14.00,2013-03-31 07:31:00,
2013-03-31 00:32:00,75.2,21.0,30.07,South,175,5.8,5.8,13,0.00,,---,0.00,VWS V14.00,2013-03-31 07:32:00,
2013-03-31 00:33:00,57.2,15.3,30.07,SSW,193,0.0,0.0,19,0.00,,---,0.00,VWS V14.00,2013-03-31 07:33:00,
2013-03-31 00:34:00,75.2,21.0,30.07,SE,146,13.2,13.2,13,0.00,,---,0.00,VWS V14.00,2013-03-31 07:34:00,
2013-03-31 00:35:00,75.2,21.0,30.07,SSE,157,10.1,10.1,13,0.00,,---,0.00,VWS V14.00,2013-03-31 07:35:00,
2013-03-31 00:36:00,75.2,21.0,30.07,SE,143,12.3,12.3,13,0.00,,---,0.00,VWS V14.00,2013-03-31 07:36:00,
2013-03-31 00:37:00,75.2,21.0,30.07,SSE,149,8.7,8.7,13,0.00,,---,0.00,VWS V14.00,2013-03-31 07:37:00,
2013-03-31 00:38:00,57.6,15.6,30.07,SSW,193,0.0,0.0,19,0.00,,---,0.00,VWS V14.00,2013-03-31 07:38:00,
2013-03-31 00:39:00,75.2,21.0,30.07,SE,142,10.1,10.1,13,0.00,,---,0.00,VWS V14.00,2013-03-31 07:39:00,
2013-03-31 00:40:00,75.2,21.0,30.07,SE,142,12.8,15.4,13,0.00,,---,0.00,VWS V14.00,2013-03-31 07:40:00,
2013-03-31 00:41:00,75.2,21.0,30.07,SSE,149,14.5,14.5,13,0.00,,---,0.00,VWS V14.00,2013-03-31 07:41:00,
2013-03-31 00:42:00,75.2,21.0,30.07,SSE,151,8.7,8.7,13,0.00,,---,0.00,VWS V14.00,2013-03-31 07:42:00,
2013-03-31 00:43:00,57.9,15.9,30.07,SSW,193,0.0,0.0,19,0.00,,---,0.00,VWS V14.00,2013-03-31 07:43:00,
2013-03-31 00:44:00,75.2,21.0,30.07,South,176,8.3,11.0,13,0.00,,---,0.00,VWS V14.00,2013-03-31 07:44:00,
2013-03-31 00:45:00,75.2,21.0,30.07,South,169,11.0,11.0,13,0.00,,---,0.00,VWS V14.00,2013-03-31 07:45:00,
2013-03-31 00:46:00,75.4,21.2,30.07,South,188,8.3,11.0,13,0.00,,---,0.00,VWS V14.00,2013-03-31 07:46:00,
2013-03-31 00:48:00,57.9,15.9,30.07,SSW,193,0.0,0.0,19,0.00,,---,0.00,VWS V14.00,2013-03-31 07:48:00,
2013-03-31 00:49:00,75.7,21.5,30.07,SE,145,8.3,8.3,13,0.00,,---,0.00,VWS V14.00,2013-03-31 07:49:00,
2013-03-31 00:50:00,75.7,21.5,30.07,South,173,8.7,13.2,13,0.00,,---,0.00,VWS V14.00,2013-03-31 07:50:00,
2013-03-31 00:51:00,75.7,21.5,30.07,SSW,203,9.6,11.0,13,0.00,,---,0.00,VWS V14.00,2013-03-31 07:51:00,
2013-03-31 00:52:00,75.7,21.5,30.07,SSE,163,8.1,9.6,13,0.00,,---,0.00,VWS V14.00,2013-03-31 07:52:00,
2013-03-31 00:53:00,57.9,15.9,30.07,SSW,193,0.0,0.0,19,0.00,,---,0.00,VWS V14.00,2013-03-31 07:53:00,
2013-03-31 00:56:00,75.7,21.5,30.07,SE,132,9.6,9.6,13,0.00,,---,0.00,VWS V14.00,2013-03-31 07:56:00,
2013-03-31 00:57:00,75.9,21.6,30.07,SE,128,6.3,8.3,13,0.00,,---,0.00,VWS V14.00,2013-03-31 07:57:00,
2013-03-31 00:58:00,57.7,15.8,30.07,SSW,193,0.0,0.0,19,0.00,,---,0.00,VWS V14.00,2013-03-31 07:58:00,
2013-03-31 00:59:00,75.9,21.6,30.07,ESE,104,11.4,11.4,13,0.00,,---,0.00,VWS V14.00,2013-03-31 07:59:00,
2013-03-31 01:00:00,75.9,21.6,30.07,SE,146,10.1,11.9,13,0.00,,---,0.00,VWS V14.00,2013-03-31 08:00:00,
2013-03-31 01:02:00,75.9,21.6,30.07,SE,137,5.4,8.7,13,0.00,,---,0.00,VWS V14.00,2013-03-31 08:02:00,
2013-03-31 01:03:00,57.7,15.8,30.07,SSW,193,0.0,0.0,19,0.00,,---,0.00,VWS V14.00,2013-03-31 08:03:00,
2013-03-31 01:04:00,76.1,21.7,30.07,SE,138,4.9,8.3,13,0.00,,---,0.00,VWS V14.00,2013-03-31 08:04:00,
2013-03-31 01:05:00,76.3,21.9,30.07,SSE,147,11.0,14.5,13,0.00,,---,0.00,VWS V14.00,2013-03-31 08:05:00,
2013-03-31 01:06:00,76.3,21.9,30.07,SSE,156,8.3,11.0,13,0.00,,---,0.00,VWS V14.00,2013-03-31 08:06:00,
2013-03-31 01:07:00,76.3,21.9,30.04,SSE,168,8.1,8.3,13,0.00,,---,0.00,VWS V14.00,2013-03-31 08:07:00,
2013-03-31 01:08:00,57.7,15.8,30.07,SSW,193,0.0,0.0,19,0.00,,---,0.00,VWS V14.00,2013-03-31 08:08:00,
2013-03-31 01:13:00,57.7,15.8,30.07,SSW,193,0.0,0.0,19,0.00,,---,0.00,VWS V14.00,2013-03-31 08:13:00,
2013-03-31 01:18:00,57.4,15.5,30.07,SSW,193,0.0,0.0,19,0.00,,---,0.00,VWS V14.00,2013-03-31 08:18:00,
2013-03-31 01:22:00,76.8,22.3,30.04,SE,137,5.8,8.7,13,0.00,,---,0.00,VWS V14.00,2013-03-31 08:22:00,
2013-03-31 01:23:00,56.7,12.4,30.07,SSW,193,0.0,0.0,17,0.00,,---,0.00,VWS V14.00,2013-03-31 08:23:00,
2013-03-31 01:24:00,77.0,22.4,30.04,South,177,6.7,13.6,13,0.00,,---,0.00,VWS V14.00,2013-03-31 08:24:00,
2013-03-31 01:25:00,77.0,22.4,30.04,SSE,159,4.0,10.1,13,0.00,,---,0.00,VWS V14.00,2013-03-31 08:25:00,
2013-03-31 01:28:00,56.1,15.6,30.07,SSW,193,0.0,0.0,20,0.00,,---,0.00,VWS V14.00,2013-03-31 08:28:00,
2013-03-31 01:33:00,55.8,15.3,30.07,SSW,193,0.0,0.0,20,0.00,,---,0.00,VWS V14.00,2013-03-31 08:33:00,
2013-03-31 01:38:00,55.6,15.2,30.07,SSW,193,0.0,0.0,20,0.00,,---,0.00,VWS V14.00,2013-03-31 08:38:00,
2013-03-31 01:43:00,55.2,14.9,30.07,SSW,193,0.0,0.0,20,0.00,,---,0.00,VWS V14.00,2013-03-31 08:43:00,
2013-03-31 01:48:00,55.2,14.9,30.07,SSW,193,0.0,0.0,20,0.00,,---,0.00,VWS V14.00,2013-03-31 08:48:00,
2013-03-31 01:53:00,55.2,14.9,30.07,SSW,193,0.0,0.0,20,0.00,,---,0.00,VWS V14.00,2013-03-31 08:53:00,
2013-03-31 01:58:00,55.4,15.0,30.07,SSW,193,0.0,0.0,20,0.00,,---,0.00,VWS V14.00,2013-03-31 08:58:00,
2013-03-31 01:59:00,76.5,22.0,30.04,SSE,151,15.4,15.4,13,0.00,,---,0.00,VWS V14.00,2013-03-31 08:59:00,
2013-03-31 02:00:00,76.6,22.1,30.04,SSW,197,8.7,8.7,13,0.00,,---,0.00,VWS V14.00,2013-03-31 09:00:00,
2013-03-31 02:01:00,76.6,22.1,30.04,SSW,192,8.3,13.2,13,0.00,,---,0.00,VWS V14.00,2013-03-31 09:01:00,
2013-03-31 02:03:00,56.1,15.6,30.07,SSW,194,0.0,0.0,20,0.00,,---,0.00,VWS V14.00,2013-03-31 09:03:00,
2013-03-31 02:08:00,56.5,15.9,30.07,SSW,193,0.0,0.0,20,0.00,,---,0.00,VWS V14.00,2013-03-31 09:08:00,
2013-03-31 02:13:00,55.9,15.5,30.07,SSW,193,0.0,0.0,20,0.00,,---,0.00,VWS V14.00,2013-03-31 09:13:00,
2013-03-31 02:18:00,55.4,15.0,30.07,SSW,193,0.0,0.0,20,0.00,,---,0.00,VWS V14.00,2013-03-31 09:18:00,
2013-03-31 02:23:00,55.2,14.9,30.07,SSW,193,0.0,0.0,20,0.00,,---,0.00,VWS V14.00,2013-03-31 09:23:00,
2013-03-31 02:28:00,55.2,14.9,30.07,SSW,193,0.0,0.0,20,0.00,,---,0.00,VWS V14.00,2013-03-31 09:28:00,
2013-03-31 02:33:00,54.9,14.6,30.07,SSW,193,0.0,0.0,20,0.00,,---,0.00,VWS V14.00,2013-03-31 09:33:00,
2013-03-31 02:38:00,54.9,14.6,30.04,SSW,194,0.0,0.0,20,0.00,,---,0.00,VWS V14.00,2013-03-31 09:38:00,
2013-03-31 02:39:00,77.5,22.9,30.01,ESE,123,5.4,7.6,13,0.00,,---,0.00,VWS V14.00,2013-03-31 09:39:00,
2013-03-31 02:40:00,77.5,22.9,30.01,SSE,155,5.4,8.1,13,0.00,,---,0.00,VWS V14.00,2013-03-31 09:40:00,
2013-03-31 02:41:00,77.5,22.9,30.01,SSE,147,8.3,10.1,13,0.00,,---,0.00,VWS V14.00,2013-03-31 09:41:00,
2013-03-31 02:43:00,54.7,14.4,30.04,SSW,193,0.0,0.0,20,0.00,,---,0.00,VWS V14.00,2013-03-31 09:43:00,
2013-03-31 02:48:00,54.5,14.3,30.04,SSW,193,0.0,0.0,20,0.00,,---,0.00,VWS V14.00,2013-03-31 09:48:00,
2013-03-31 02:53:00,54.0,13.8,30.04,SSW,193,0.0,0.0,20,0.00,,---,0.00,VWS V14.00,2013-03-31 09:53:00,
2013-03-31 02:58:00,53.8,13.7,30.04,SSW,193,0.0,0.0,20,0.00,,---,0.00,VWS V14.00,2013-03-31 09:58:00,
2013-03-31 03:03:00,53.6,13.5,30.04,SSW,193,0.0,0.0,20,0.00,,---,0.00,VWS V14.00,2013-03-31 10:03:00,
2013-03-31 03:05:00,77.2,22.6,30.01,SSW,211,8.7,12.8,13,0.00,,---,0.00,VWS V14.00,2013-03-31 10:05:00,
2013-03-31 03:06:00,77.2,22.6,30.01,SSE,167,12.3,12.3,13,0.00,,---,0.00,VWS V14.00,2013-03-31 10:06:00,
2013-03-31 03:07:00,77.2,22.6,30.01,SE,143,6.3,12.3,13,0.00,,---,0.00,VWS V14.00,2013-03-31 10:07:00,
2013-03-31 03:08:00,53.6,13.5,30.04,SSW,193,0.0,0.0,20,0.00,,---,0.00,VWS V14.00,2013-03-31 10:08:00,
2013-03-31 03:09:00,77.0,22.4,30.01,SSE,155,9.2,9.2,13,0.00,,---,0.00,VWS V14.00,2013-03-31 10:09:00,
2013-03-31 03:13:00,53.2,14.3,30.04,SSW,193,0.0,0.0,21,0.00,,---,0.00,VWS V14.00,2013-03-31 10:13:00,
2013-03-31 03:14:00,77.4,22.7,30.01,SSE,156,7.6,11.0,13,0.00,,---,0.00,VWS V14.00,2013-03-31 10:14:00,
2013-03-31 03:15:00,77.4,22.7,30.01,SSE,156,7.6,11.0,13,0.00,,---,0.00,VWS V14.00,2013-03-31 10:15:00,
2013-03-31 03:16:00,77.4,22.7,30.01,South,172,12.8,12.8,13,0.00,,---,0.00,VWS V14.00,2013-03-31 10:16:00,
2013-03-31 03:17:00,77.5,22.9,30.01,South,175,12.3,15.4,13,0.00,,---,0.00,VWS V14.00,2013-03-31 10:17:00,
2013-03-31 03:18:00,53.1,14.2,30.04,SSW,193,0.0,0.0,21,0.00,,---,0.00,VWS V14.00,2013-03-31 10:18:00,
2013-03-31 03:19:00,77.5,22.9,30.01,South,176,10.5,10.5,13,0.00,,---,0.00,VWS V14.00,2013-03-31 10:19:00,
2013-03-31 03:20:00,77.5,22.9,30.01,SSE,166,11.4,12.8,13,0.00,,---,0.00,VWS V14.00,2013-03-31 10:20:00,
2013-03-31 03:23:00,52.7,16.0,30.04,SSW,193,0.0,0.0,23,0.00,,---,0.00,VWS V14.00,2013-03-31 10:23:00,
2013-03-31 03:28:00,52.2,15.5,30.04,SSW,193,0.0,0.0,23,0.00,,---,0.00,VWS V14.00,2013-03-31 10:28:00,
2013-03-31 03:34:00,51.6,16.0,30.04,SSW,193,0.0,0.0,24,0.00,,---,0.00,VWS V14.00,2013-03-31 10:34:00,
2013-03-31 03:39:00,51.4,15.9,30.04,SSW,193,0.0,0.0,24,0.00,,---,0.00,VWS V14.00,2013-03-31 10:39:00,
2013-03-31 03:44:00,51.1,15.6,30.04,SSW,193,0.0,0.0,24,0.00,,---,0.00,VWS V14.00,2013-03-31 10:44:00,
2013-03-31 03:49:00,50.7,17.1,30.04,SSW,193,0.0,0.0,26,0.00,,---,0.00,VWS V14.00,2013-03-31 10:49:00,
2013-03-31 03:54:00,50.7,17.1,30.04,SSW,193,0.0,0.0,26,0.00,,---,0.00,VWS V14.00,2013-03-31 10:54:00,
2013-03-31 03:59:00,50.7,17.1,30.04,SSW,193,0.0,0.0,26,0.00,,---,0.00,VWS V14.00,2013-03-31 10:59:00,
2013-03-31 04:04:00,50.5,17.0,30.04,SSW,193,0.0,0.0,26,0.00,,---,0.00,VWS V14.00,2013-03-31 11:04:00,
2013-03-31 04:09:00,50.5,17.0,30.04,SSW,193,0.0,0.0,26,0.00,,---,0.00,VWS V14.00,2013-03-31 11:09:00,
2013-03-31 04:14:00,50.5,17.0,30.04,SSW,193,0.0,0.0,26,0.00,,---,0.00,VWS V14.00,2013-03-31 11:14:00,
2013-03-31 04:19:00,50.5,17.0,30.04,SSW,193,0.0,0.0,26,0.00,,---,0.00,VWS V14.00,2013-03-31 11:19:00,
2013-03-31 04:24:00,50.2,17.5,30.04,SSW,193,0.0,0.0,27,0.00,,---,0.00,VWS V14.00,2013-03-31 11:24:00,
2013-03-31 04:29:00,49.6,17.0,30.04,SSW,193,0.0,0.0,27,0.00,,---,0.00,VWS V14.00,2013-03-31 11:29:00,
2013-03-31 04:34:00,49.1,16.6,30.04,SSW,193,0.0,0.0,27,0.00,,---,0.00,VWS V14.00,2013-03-31 11:34:00,
2013-03-31 04:39:00,48.7,17.1,30.04,SSW,194,0.0,0.0,28,0.00,,---,0.00,VWS V14.00,2013-03-31 11:39:00,
2013-03-31 04:44:00,48.7,17.1,30.04,SSW,193,0.0,0.0,28,0.00,,---,0.00,VWS V14.00,2013-03-31 11:44:00,
2013-03-31 04:49:00,48.7,17.1,30.04,SSW,193,0.0,0.0,28,0.00,,---,0.00,VWS V14.00,2013-03-31 11:49:00,
2013-03-31 04:54:00,48.7,17.1,30.04,SSW,193,0.0,0.0,28,0.00,,---,0.00,VWS V14.00,2013-03-31 11:54:00,
2013-03-31 04:56:00,75.6,21.3,29.98,South,169,10.1,12.8,13,0.00,,---,0.00,VWS V14.00,2013-03-31 11:56:00,
2013-03-31 04:57:00,75.6,21.3,29.98,SSE,149,5.4,5.4,13,0.00,,---,0.00,VWS V14.00,2013-03-31 11:57:00,
2013-03-31 04:58:00,75.6,21.3,29.98,South,187,14.5,14.5,13,0.00,,---,0.00,VWS V14.00,2013-03-31 11:58:00,
2013-03-31 04:59:00,48.6,17.0,30.04,SSW,193,0.0,0.0,28,0.00,,---,0.00,VWS V14.00,2013-03-31 11:59:00,
2013-03-31 05:04:00,48.6,17.0,30.04,SSW,193,0.0,0.0,28,0.00,,---,0.00,VWS V14.00,2013-03-31 12:04:00,
2013-03-31 05:09:00,48.6,17.0,30.04,SSW,193,0.0,0.0,28,0.00,,---,0.00,VWS V14.00,2013-03-31 12:09:00,
2013-03-31 05:14:00,48.6,17.0,30.04,SSW,193,0.0,0.0,28,0.00,,---,0.00,VWS V14.00,2013-03-31 12:14:00,
2013-03-31 05:19:00,48.6,17.0,30.04,SSW,193,0.0,0.0,28,0.00,,---,0.00,VWS V14.00,2013-03-31 12:19:00,
2013-03-31 05:24:00,48.7,17.1,30.04,SSW,193,0.0,0.0,28,0.00,,---,0.00,VWS V14.00,2013-03-31 12:24:00,
2013-03-31 05:29:00,49.5,17.7,30.04,SSW,193,2.7,4.0,28,0.00,,---,0.00,VWS V14.00,2013-03-31 12:29:00,
2013-03-31 05:34:00,49.8,18.0,30.04,SSW,193,0.0,0.0,28,0.00,,---,0.00,VWS V14.00,2013-03-31 12:34:00,
2013-03-31 05:39:00,50.0,17.4,30.04,SSW,193,0.0,0.0,27,0.00,,---,0.00,VWS V14.00,2013-03-31 12:39:00,
2013-03-31 05:44:00,49.8,18.0,30.04,SSW,193,0.0,0.0,28,0.00,,---,0.00,VWS V14.00,2013-03-31 12:44:00,
2013-03-31 05:46:00,74.7,20.6,29.98,SSE,159,4.0,5.8,13,0.00,,---,0.00,VWS V14.00,2013-03-31 12:46:00,
2013-03-31 05:47:00,74.7,20.6,29.98,West,268,8.1,8.1,13,0.00,,---,0.00,VWS V14.00,2013-03-31 12:47:00,
2013-03-31 05:48:00,74.5,20.5,29.98,WSW,238,8.3,12.3,13,0.00,,---,0.00,VWS V14.00,2013-03-31 12:48:00,
2013-03-31 05:49:00,49.5,17.7,30.04,SSW,193,0.0,0.0,28,0.00,,---,0.00,VWS V14.00,2013-03-31 12:49:00,
2013-03-31 05:50:00,74.5,20.5,29.98,SSE,153,8.7,10.1,13,0.00,,---,0.00,VWS V14.00,2013-03-31 12:50:00,
2013-03-31 05:54:00,48.7,17.1,30.04,SSW,193,0.0,0.0,28,0.00,,---,0.00,VWS V14.00,2013-03-31 12:54:00,
2013-03-31 05:59:00,48.0,16.5,30.04,SSW,193,0.0,0.0,28,0.00,,---,0.00,VWS V14.00,2013-03-31 12:59:00,
2013-03-31 06:03:00,47.7,16.2,30.04,SSW,193,0.0,0.0,28,0.00,,---,0.00,VWS V14.00,2013-03-31 13:03:00,
2013-03-31 06:08:00,47.7,17.0,30.04,SSW,193,0.0,0.0,29,0.00,,---,0.00,VWS V14.00,2013-03-31 13:08:00,
2013-03-31 06:13:00,47.8,17.1,30.04,SSW,193,0.0,0.0,29,0.00,,---,0.00,VWS V14.00,2013-03-31 13:13:00,
2013-03-31 06:18:00,48.0,17.3,30.04,SSW,193,0.0,0.0,29,0.00,,---,0.00,VWS V14.00,2013-03-31 13:18:00,
2013-03-31 06:23:00,48.2,16.6,30.04,SSW,193,0.0,0.0,28,0.00,,---,0.00,VWS V14.00,2013-03-31 13:23:00,
2013-03-31 06:28:00,48.4,16.8,30.04,SSW,193,0.0,0.0,28,0.00,,---,0.00,VWS V14.00,2013-03-31 13:28:00,
2013-03-31 06:33:00,48.2,16.6,30.04,SSW,193,0.0,0.0,28,0.00,,---,0.00,VWS V14.00,2013-03-31 13:33:00,
2013-03-31 06:38:00,48.0,17.3,30.07,SSW,193,0.0,0.0,29,0.00,,---,0.00,VWS V14.00,2013-03-31 13:38:00,
2013-03-31 06:43:00,47.8,17.1,30.07,SSW,193,0.0,0.0,29,0.00,,---,0.00,VWS V14.00,2013-03-31 13:43:00,
2013-03-31 06:48:00,47.8,17.1,30.07,SSW,193,0.0,0.0,29,0.00,,---,0.00,VWS V14.00,2013-03-31 13:48:00,
2013-03-31 06:49:00,70.7,19.2,29.98,SSE,154,6.3,8.1,14,0.00,,---,0.00,VWS V14.00,2013-03-31 13:49:00,
2013-03-31 06:50:00,70.5,19.1,29.98,SSE,154,8.3,8.3,14,0.00,,---,0.00,VWS V14.00,2013-03-31 13:50:00,
2013-03-31 06:51:00,70.5,19.1,29.98,SSE,164,7.6,10.1,14,0.00,,---,0.00,VWS V14.00,2013-03-31 13:51:00,
2013-03-31 06:53:00,47.8,17.1,30.07,SSW,193,0.0,0.0,29,0.00,,---,0.00,VWS V14.00,2013-03-31 13:53:00,
2013-03-31 06:58:00,48.0,18.1,30.07,SSW,193,0.0,0.0,30,0.00,,---,0.00,VWS V14.00,2013-03-31 13:58:00,
2013-03-31 07:03:00,48.4,17.6,30.07,SSW,193,0.0,0.0,29,0.00,,---,0.00,VWS V14.00,2013-03-31 14:03:00,
2013-03-31 07:08:00,48.6,17.8,30.07,SSW,193,0.0,0.0,29,0.00,,---,0.00,VWS V14.00,2013-03-31 14:08:00,
2013-03-31 07:13:00,48.7,17.9,30.07,SSW,193,0.0,0.0,29,0.00,,---,0.00,VWS V14.00,2013-03-31 14:13:00,
2013-03-31 07:18:00,49.3,18.4,30.07,SSW,193,0.0,0.0,29,0.00,,---,0.00,VWS V14.00,2013-03-31 14:18:00,
2013-03-31 07:23:00,50.0,19.0,30.07,SSW,193,0.0,0.0,29,0.00,,---,0.00,VWS V14.00,2013-03-31 14:23:00,
2013-03-31 07:28:00,50.7,19.6,30.07,SSW,193,0.0,0.0,29,0.00,,---,0.00,VWS V14.00,2013-03-31 14:28:00,
2013-03-31 07:38:00,51.8,19.8,30.07,SSW,193,0.0,0.0,28,0.00,,---,0.00,VWS V14.00,2013-03-31 14:38:00,
2013-03-31 07:43:00,52.7,19.7,30.07,SSW,193,0.0,0.0,27,0.00,,---,0.00,VWS V14.00,2013-03-31 14:43:00,
2013-03-31 07:48:00,53.6,19.6,30.07,SSW,193,0.0,0.0,26,0.00,,---,0.00,VWS V14.00,2013-03-31 14:48:00,
2013-03-31 07:53:00,54.5,20.3,30.07,SSW,193,0.0,0.0,26,0.00,,---,0.00,VWS V14.00,2013-03-31 14:53:00,
2013-03-31 07:59:00,55.6,20.3,30.07,SSW,193,0.0,0.0,25,0.00,,---,0.00,VWS V14.00,2013-03-31 14:59:00,
2013-03-31 08:04:00,56.3,21.0,30.07,SSW,193,0.0,0.0,25,0.00,,---,0.00,VWS V14.00,2013-03-31 15:04:00,
2013-03-31 08:09:00,57.2,20.8,30.07,SSW,193,0.0,0.0,24,0.00,,---,0.00,VWS V14.00,2013-03-31 15:09:00,
2013-03-31 08:14:00,58.3,19.6,30.07,SSW,193,0.0,0.0,22,0.00,,---,0.00,VWS V14.00,2013-03-31 15:14:00,
2013-03-31 08:15:00,67.8,18.5,29.98,SE,146,4.9,8.1,15,0.00,,---,0.00,VWS V14.00,2013-03-31 15:15:00,
2013-03-31 08:16:00,67.8,18.5,29.98,South,176,6.3,6.3,15,0.00,,---,0.00,VWS V14.00,2013-03-31 15:16:00,
2013-03-31 08:17:00,67.8,18.5,29.98,SSE,155,8.1,8.1,15,0.00,,---,0.00,VWS V14.00,2013-03-31 15:17:00,
2013-03-31 08:18:00,67.8,18.5,29.98,SSE,155,7.6,7.6,15,0.00,,---,0.00,VWS V14.00,2013-03-31 15:18:00,
2013-03-31 08:19:00,59.2,20.4,30.07,SSW,193,0.0,0.0,22,0.00,,---,0.00,VWS V14.00,2013-03-31 15:19:00,
2013-03-31 08:20:00,67.8,18.5,29.98,SSE,163,5.8,7.6,15,0.00,,---,0.00,VWS V14.00,2013-03-31 15:20:00,
2013-03-31 08:21:00,67.8,18.5,29.98,SSE,162,3.1,3.6,15,0.00,,---,0.00,VWS V14.00,2013-03-31 15:21:00,
2013-03-31 08:22:00,67.8,18.5,29.98,SSE,162,7.6,8.3,15,0.00,,---,0.00,VWS V14.00,2013-03-31 15:22:00,
2013-03-31 08:23:00,67.6,18.4,29.98,SSE,158,6.3,7.6,15,0.00,,---,0.00,VWS V14.00,2013-03-31 15:23:00,
2013-03-31 08:24:00,59.9,17.6,30.07,SSW,193,0.0,0.0,19,0.00,,---,0.00,VWS V14.00,2013-03-31 15:24:00,
2013-03-31 08:29:00,60.6,18.2,30.07,SSW,193,0.0,0.0,19,0.00,,---,0.00,VWS V14.00,2013-03-31 15:29:00,
2013-03-31 08:34:00,61.3,18.8,30.07,SSW,193,0.0,0.0,19,0.00,,---,0.00,VWS V14.00,2013-03-31 15:34:00,
2013-03-31 08:36:00,67.5,18.2,29.98,SSE,166,5.4,7.2,15,0.00,,---,0.00,VWS V14.00,2013-03-31 15:36:00,
2013-03-31 08:37:00,67.5,18.2,29.98,SSE,159,10.1,10.1,15,0.00,,---,0.00,VWS V14.00,2013-03-31 15:37:00,
2013-03-31 08:38:00,67.5,18.2,29.98,SSE,160,6.3,10.1,15,0.00,,---,0.00,VWS V14.00,2013-03-31 15:38:00,
2013-03-31 08:39:00,62.2,19.5,30.07,SSW,193,4.0,4.0,19,0.00,,---,0.00,VWS V14.00,2013-03-31 15:39:00,
2013-03-31 08:44:00,63.5,19.3,30.07,South,174,5.8,5.8,18,0.00,,---,0.00,VWS V14.00,2013-03-31 15:44:00,
2013-03-31 08:49:00,65.3,20.7,30.07,South,189,4.0,4.0,18,0.00,,---,0.00,VWS V14.00,2013-03-31 15:49:00,
2013-03-31 08:54:00,66.4,20.3,30.07,South,184,6.3,6.3,17,0.00,,---,0.00,VWS V14.00,2013-03-31 15:54:00,
2013-03-31 08:59:00,66.9,20.7,30.07,SSW,194,3.1,4.0,17,0.00,,---,0.00,VWS V14.00,2013-03-31 15:59:00,
2013-03-31 09:00:00,66.9,17.8,29.98,SSE,166,6.3,8.1,15,0.00,,---,0.00,VWS V14.00,2013-03-31 16:00:00,
2013-03-31 09:01:00,66.7,17.6,29.98,South,170,5.4,8.1,15,0.00,,---,0.00,VWS V14.00,2013-03-31 16:01:00,
2013-03-31 09:02:00,66.7,17.6,29.98,SSE,151,5.4,5.4,15,0.00,,---,0.00,VWS V14.00,2013-03-31 16:02:00,
2013-03-31 09:03:00,66.7,17.6,29.98,SE,143,8.7,8.7,15,0.00,,---,0.00,VWS V14.00,2013-03-31 16:03:00,
2013-03-31 09:04:00,67.5,21.2,30.07,SSE,168,5.8,6.3,17,0.00,,---,0.00,VWS V14.00,2013-03-31 16:04:00,
2013-03-31 09:09:00,67.8,18.5,30.07,SSE,163,4.9,5.4,15,0.00,,---,0.00,VWS V14.00,2013-03-31 16:09:00,
2013-03-31 09:11:00,66.4,17.4,29.98,South,186,7.6,7.6,15,0.00,,---,0.00,VWS V14.00,2013-03-31 16:11:00,
2013-03-31 09:12:00,66.4,17.4,29.98,SSE,155,10.5,10.5,15,0.00,,---,0.00,VWS V14.00,2013-03-31 16:12:00,
2013-03-31 09:13:00,66.4,17.4,29.98,SSE,155,8.1,10.5,15,0.00,,---,0.00,VWS V14.00,2013-03-31 16:13:00,
2013-03-31 09:14:00,68.2,21.7,30.07,SSW,198,6.3,6.3,17,0.00,,---,0.00,VWS V14.00,2013-03-31 16:14:00,
2013-03-31 09:15:00,66.4,17.4,29.98,SSE,158,4.5,4.9,15,0.00,,---,0.00,VWS V14.00,2013-03-31 16:15:00,
2013-03-31 09:16:00,66.2,17.2,29.98,SSE,153,7.6,9.6,15,0.00,,---,0.00,VWS V14.00,2013-03-31 16:16:00,
2013-03-31 09:19:00,68.5,19.1,30.07,South,173,8.3,8.3,15,0.00,,---,0.00,VWS V14.00,2013-03-31 16:19:00,
2013-03-31 09:24:00,69.1,19.5,30.07,South,169,5.8,8.1,15,0.00,,---,0.00,VWS V14.00,2013-03-31 16:24:00,
2013-03-31 09:31:00,69.6,20.0,30.07,SSE,162,6.3,6.3,15,0.00,,---,0.00,VWS V14.00,2013-03-31 16:31:00,
2013-03-31 09:36:00,70.0,18.6,30.07,South,173,3.6,5.8,14,0.00,,---,0.00,VWS V14.00,2013-03-31 16:36:00,
2013-03-31 09:41:00,70.2,18.8,30.07,South,180,10.5,10.5,14,0.00,,---,0.00,VWS V14.00,2013-03-31 16:41:00,
2013-03-31 09:46:00,70.3,18.9,30.07,SSW,205,5.4,5.8,14,0.00,,---,0.00,VWS V14.00,2013-03-31 16:46:00,
2013-03-31 09:51:00,70.7,19.2,30.07,South,182,2.7,5.4,14,0.00,,---,0.00,VWS V14.00,2013-03-31 16:51:00,
2013-03-31 09:56:00,71.1,19.5,30.07,SSE,158,6.3,7.6,14,0.00,,---,0.00,VWS V14.00,2013-03-31 16:56:00,
2013-03-31 10:00:00,64.9,16.2,29.98,SE,146,5.8,5.8,15,0.00,,---,0.00,VWS V14.00,2013-03-31 17:00:00,
2013-03-31 10:01:00,71.4,19.8,30.07,SSE,158,5.8,8.3,14,0.00,,---,0.00,VWS V14.00,2013-03-31 17:01:00,
2013-03-31 10:02:00,64.8,16.1,29.98,SE,145,5.4,5.4,15,0.00,,---,0.00,VWS V14.00,2013-03-31 17:02:00,
2013-03-31 10:03:00,64.8,16.1,29.98,SE,133,5.8,8.3,15,0.00,,---,0.00,VWS V14.00,2013-03-31 17:03:00,
2013-03-31 10:04:00,64.8,16.1,29.98,SSE,158,5.4,6.7,15,0.00,,---,0.00,VWS V14.00,2013-03-31 17:04:00,
2013-03-31 10:05:00,64.8,16.1,29.98,SSE,154,5.4,6.3,15,0.00,,---,0.00,VWS V14.00,2013-03-31 17:05:00,
2013-03-31 10:06:00,71.6,19.9,30.07,South,181,7.6,9.6,14,0.00,,---,0.00,VWS V14.00,2013-03-31 17:06:00,
2013-03-31 10:11:00,71.6,19.9,30.07,SSE,161,8.7,8.7,14,0.00,,---,0.00,VWS V14.00,2013-03-31 17:11:00,
2013-03-31 10:12:00,64.4,15.8,29.98,South,169,8.1,8.1,15,0.00,,---,0.00,VWS V14.00,2013-03-31 17:12:00,
2013-03-31 10:13:00,64.4,15.8,29.98,SSE,152,4.9,8.1,15,0.00,,---,0.00,VWS V14.00,2013-03-31 17:13:00,
2013-03-31 10:14:00,64.4,15.8,29.98,ESE,119,4.0,4.0,15,0.00,,---,0.00,VWS V14.00,2013-03-31 17:14:00,
2013-03-31 10:15:00,64.4,15.8,29.98,SE,132,5.4,6.3,15,0.00,,---,0.00,VWS V14.00,2013-03-31 17:15:00,
2013-03-31 10:17:00,71.8,20.1,30.07,SSW,202,11.0,11.0,14,0.00,,---,0.00,VWS V14.00,2013-03-31 17:17:00,
2013-03-31 10:22:00,72.0,20.2,30.07,South,187,11.0,11.0,14,0.00,,---,0.00,VWS V14.00,2013-03-31 17:22:00,
2013-03-31 10:24:00,64.0,17.0,29.98,SSE,165,8.1,8.1,16,0.00,,---,0.00,VWS V14.00,2013-03-31 17:24:00,
2013-03-31 10:25:00,64.0,17.0,29.98,SSE,164,3.1,8.1,16,0.00,,---,0.00,VWS V14.00,2013-03-31 17:25:00,
2013-03-31 10:26:00,64.0,17.0,29.98,SE,143,4.9,5.8,16,0.00,,---,0.00,VWS V14.00,2013-03-31 17:26:00,
2013-03-31 10:27:00,72.0,20.2,30.07,SSE,160,8.7,8.7,14,0.00,,---,0.00,VWS V14.00,2013-03-31 17:27:00,
2013-03-31 10:28:00,63.9,16.8,29.98,SSE,154,5.4,5.4,16,0.00,,---,0.00,VWS V14.00,2013-03-31 17:28:00,
2013-03-31 10:32:00,72.3,20.5,30.07,SSE,158,6.3,8.1,14,0.00,,---,0.00,VWS V14.00,2013-03-31 17:32:00,
2013-03-31 10:37:00,72.5,20.6,30.07,SSE,167,7.6,7.6,14,0.00,,---,0.00,VWS V14.00,2013-03-31 17:37:00,
2013-03-31 10:42:00,72.7,20.8,30.07,SSE,160,8.1,8.1,14,0.00,,---,0.00,VWS V14.00,2013-03-31 17:42:00,
2013-03-31 10:48:00,72.7,20.8,30.07,SSE,149,10.1,10.1,14,0.00,,---,0.00,VWS V14.00,2013-03-31 17:48:00,
2013-03-31 10:52:00,63.3,16.4,29.98,SSE,159,3.1,5.8,16,0.00,,---,0.00,VWS V14.00,2013-03-31 17:52:00,
2013-03-31 10:53:00,72.9,20.9,30.07,South,169,8.7,8.7,14,0.00,,---,0.00,VWS V14.00,2013-03-31 17:53:00,
2013-03-31 10:54:00,63.1,16.2,29.98,SE,145,3.1,6.3,16,0.00,,---,0.00,VWS V14.00,2013-03-31 17:54:00,
2013-03-31 10:55:00,63.1,16.2,29.98,SSE,147,5.4,6.3,16,0.00,,---,0.00,VWS V14.00,2013-03-31 17:55:00,
2013-03-31 10:58:00,73.0,21.1,30.07,South,183,3.6,3.6,14,0.00,,---,0.00,VWS V14.00,2013-03-31 17:58:00,
2013-03-31 11:03:00,73.0,21.1,30.07,SSE,164,10.5,10.5,14,0.00,,---,0.00,VWS V14.00,2013-03-31 18:03:00,
2013-03-31 11:08:00,73.4,19.6,30.07,South,185,5.4,8.7,13,0.00,,---,0.00,VWS V14.00,2013-03-31 18:08:00,
2013-03-31 11:13:00,73.6,19.8,30.07,SSE,151,12.8,12.8,13,0.00,,---,0.00,VWS V14.00,2013-03-31 18:13:00,
2013-03-31 11:18:00,73.8,19.9,30.07,SSE,148,12.8,12.8,13,0.00,,---,0.00,VWS V14.00,2013-03-31 18:18:00,
2013-03-31 11:23:00,73.9,20.0,30.07,SSE,165,6.3,6.3,13,0.00,,---,0.00,VWS V14.00,2013-03-31 18:23:00,
2013-03-31 11:27:00,61.5,14.9,29.98,South,170,2.7,4.9,16,0.00,,---,0.00,VWS V14.00,2013-03-31 18:27:00,
2013-03-31 11:28:00,74.3,20.3,30.07,SSE,161,8.1,8.1,13,0.00,,---,0.00,VWS V14.00,2013-03-31 18:28:00,
2013-03-31 11:29:00,61.5,14.9,29.98,SSE,168,6.3,6.3,16,0.00,,---,0.00,VWS V14.00,2013-03-31 18:29:00,
2013-03-31 11:30:00,61.5,14.9,29.98,SSE,167,3.6,6.3,16,0.00,,---,0.00,VWS V14.00,2013-03-31 18:30:00,
2013-03-31 11:33:00,74.5,20.5,30.07,SSE,162,7.6,8.1,13,0.00,,---,0.00,VWS V14.00,2013-03-31 18:33:00,
2013-03-31 11:38:00,74.5,20.5,30.07,SSE,159,14.5,14.5,13,0.00,,---,0.00,VWS V14.00,2013-03-31 18:38:00,
2013-03-31 11:43:00,74.5,20.5,30.07,SE,140,12.3,12.3,13,0.00,,---,0.00,VWS V14.00,2013-03-31 18:43:00,
2013-03-31 11:48:00,74.5,20.5,30.07,SSE,151,7.6,13.2,13,0.00,,---,0.00,VWS V14.00,2013-03-31 18:48:00,
2013-03-31 11:53:00,74.7,20.6,30.07,SSE,161,8.1,12.8,13,0.00,,---,0.00,VWS V14.00,2013-03-31 18:53:00,
2013-03-31 11:59:00,74.8,20.7,30.07,SSE,161,8.1,8.1,13,0.00,,---,0.00,VWS V14.00,2013-03-31 18:59:00,
2013-03-31 12:04:00,74.8,20.7,30.07,SE,146,8.1,11.0,13,0.00,,---,0.00,VWS V14.00,2013-03-31 19:04:00,
2013-03-31 12:09:00,74.7,20.6,30.07,South,184,4.0,7.6,13,0.00,,---,0.00,VWS V14.00,2013-03-31 19:09:00,
2013-03-31 12:14:00,74.8,20.7,30.07,SSE,163,10.5,11.0,13,0.00,,---,0.00,VWS V14.00,2013-03-31 19:14:00,
2013-03-31 12:16:00,59.9,15.0,29.98,South,170,4.0,4.9,17,0.00,,---,0.00,VWS V14.00,2013-03-31 19:16:00,
2013-03-31 12:17:00,59.9,15.0,29.98,South,173,6.3,6.3,17,0.00,,---,0.00,VWS V14.00,2013-03-31 19:17:00,
2013-03-31 12:18:00,59.9,15.0,29.98,South,176,3.1,3.6,17,0.00,,---,0.00,VWS V14.00,2013-03-31 19:18:00,
2013-03-31 12:19:00,59.9,15.0,29.98,South,174,4.0,4.0,17,0.00,,---,0.00,VWS V14.00,2013-03-31 19:19:00,
2013-03-31 12:20:00,59.9,15.0,29.98,South,174,3.6,4.0,17,0.00,,---,0.00,VWS V14.00,2013-03-31 19:20:00,
2013-03-31 12:21:00,75.2,21.0,30.07,SSE,160,5.4,5.4,13,0.00,,---,0.00,VWS V14.00,2013-03-31 19:21:00,
2013-03-31 12:26:00,75.4,21.2,30.07,South,176,8.1,13.2,13,0.00,,---,0.00,VWS V14.00,2013-03-31 19:26:00,
2013-03-31 12:31:00,75.2,21.0,30.07,SSE,149,8.1,8.3,13,0.00,,---,0.00,VWS V14.00,2013-03-31 19:31:00,
2013-03-31 12:35:00,59.7,14.9,29.98,SSW,202,2.7,4.0,17,0.00,,---,0.00,VWS V14.00,2013-03-31 19:35:00,
2013-03-31 12:36:00,75.2,21.0,30.07,SSE,167,11.9,20.1,13,0.00,,---,0.00,VWS V14.00,2013-03-31 19:36:00,
2013-03-31 12:37:00,59.7,14.9,29.98,SSW,202,3.1,3.1,17,0.00,,---,0.00,VWS V14.00,2013-03-31 19:37:00,
2013-03-31 12:38:00,59.7,14.9,29.98,SSW,202,2.2,3.6,17,0.00,,---,0.00,VWS V14.00,2013-03-31 19:38:00,
2013-03-31 12:39:00,59.7,14.9,29.98,SSW,201,3.6,4.0,17,0.00,,---,0.00,VWS V14.00,2013-03-31 19:39:00,
2013-03-31 12:40:00,59.7,14.9,29.98,SSW,200,3.1,4.0,17,0.00,,---,0.00,VWS V14.00,2013-03-31 19:40:00,
2013-03-31 12:41:00,75.2,21.0,30.07,SSW,192,11.0,14.5,13,0.00,,---,0.00,VWS V14.00,2013-03-31 19:41:00,
2013-03-31 12:46:00,75.4,21.2,30.07,SE,139,6.3,10.1,13,0.00,,---,0.00,VWS V14.00,2013-03-31 19:46:00,
2013-03-31 12:47:00,59.5,14.7,29.98,South,178,5.4,5.4,17,0.00,,---,0.00,VWS V14.00,2013-03-31 19:47:00,
2013-03-31 12:48:00,59.5,14.7,29.98,South,178,4.0,5.4,17,0.00,,---,0.00,VWS V14.00,2013-03-31 19:48:00,
2013-03-31 12:49:00,59.5,14.7,29.98,South,178,4.0,4.0,17,0.00,,---,0.00,VWS V14.00,2013-03-31 19:49:00,
2013-03-31 12:50:00,59.4,14.6,29.98,South,178,5.4,5.8,17,0.00,,---,0.00,VWS V14.00,2013-03-31 19:50:00,
2013-03-31 12:51:00,75.7,21.5,30.07,South,176,5.4,9.6,13,0.00,,---,0.00,VWS V14.00,2013-03-31 19:51:00,
2013-03-31 12:57:00,75.9,21.6,30.07,SE,131,8.3,9.6,13,0.00,,---,0.00,VWS V14.00,2013-03-31 19:57:00,
2013-03-31 13:02:00,75.9,21.6,30.07,ESE,121,8.7,8.7,13,0.00,,---,0.00,VWS V14.00,2013-03-31 20:02:00,
2013-03-31 13:07:00,76.3,21.9,30.04,SSE,168,8.1,8.3,13,0.00,,---,0.00,VWS V14.00,2013-03-31 20:07:00,
2013-03-31 13:12:00,76.3,21.9,30.04,South,170,6.3,8.3,13,0.00,,---,0.00,VWS V14.00,2013-03-31 20:12:00,
2013-03-31 13:17:00,76.6,22.1,30.04,South,190,5.4,10.5,13,0.00,,---,0.00,VWS V14.00,2013-03-31 20:17:00,
2013-03-31 13:18:00,58.6,14.0,29.98,South,176,4.9,4.9,17,0.00,,---,0.00,VWS V14.00,2013-03-31 20:18:00,
2013-03-31 13:19:00,58.6,14.0,29.98,South,175,5.8,5.8,17,0.00,,---,0.00,VWS V14.00,2013-03-31 20:19:00,
2013-03-31 13:20:00,58.6,14.0,29.98,South,175,3.1,5.8,17,0.00,,---,0.00,VWS V14.00,2013-03-31 20:20:00,
2013-03-31 13:21:00,58.6,14.0,29.98,SSE,163,4.0,4.0,17,0.00,,---,0.00,VWS V14.00,2013-03-31 20:21:00,
2013-03-31 13:22:00,76.8,22.3,30.04,SSE,147,6.3,11.0,13,0.00,,---,0.00,VWS V14.00,2013-03-31 20:22:00,
2013-03-31 13:23:00,58.6,14.0,29.98,South,171,8.7,8.7,17,0.00,,---,0.00,VWS V14.00,2013-03-31 20:23:00,
2013-03-31 13:24:00,58.6,14.0,29.98,SSE,162,5.4,5.4,17,0.00,,---,0.00,VWS V14.00,2013-03-31 20:24:00,
2013-03-31 13:27:00,76.8,22.3,30.04,SSE,148,7.6,10.5,13,0.00,,---,0.00,VWS V14.00,2013-03-31 20:27:00,
2013-03-31 13:32:00,76.3,21.9,30.04,South,184,6.3,10.1,13,0.00,,---,0.00,VWS V14.00,2013-03-31 20:32:00,
2013-03-31 13:37:00,76.5,22.0,30.04,SSE,164,6.7,6.7,13,0.00,,---,0.00,VWS V14.00,2013-03-31 20:37:00,
2013-03-31 13:42:00,76.5,22.0,30.04,SE,144,8.1,8.3,13,0.00,,---,0.00,VWS V14.00,2013-03-31 20:42:00,
2013-03-31 13:47:00,76.3,21.9,30.04,SSE,168,10.1,12.3,13,0.00,,---,0.00,VWS V14.00,2013-03-31 20:47:00,
2013-03-31 13:52:00,76.3,21.9,30.04,SE,133,8.7,9.2,13,0.00,,---,0.00,VWS V14.00,2013-03-31 20:52:00,
2013-03-31 13:57:00,76.5,22.0,30.04,SSE,158,6.3,8.1,13,0.00,,---,0.00,VWS V14.00,2013-03-31 20:57:00,
2013-03-31 13:58:00,59.5,20.7,29.98,SSE,156,5.8,5.8,22,0.00,,---,0.00,VWS V14.00,2013-03-31 20:58:00,
2013-03-31 13:59:00,59.5,20.7,29.98,South,174,5.8,5.8,22,0.00,,---,0.00,VWS V14.00,2013-03-31 20:59:00,
2013-03-31 14:00:00,59.5,20.7,29.98,SSE,168,5.8,5.8,22,0.00,,---,0.00,VWS V14.00,2013-03-31 21:00:00,
2013-03-31 14:01:00,59.5,20.7,29.98,SSE,163,5.4,6.3,22,0.00,,---,0.00,VWS V14.00,2013-03-31 21:01:00,
2013-03-31 14:02:00,76.6,22.1,30.04,SSE,168,12.8,13.2,13,0.00,,---,0.00,VWS V14.00,2013-03-31 21:02:00,
2013-03-31 14:03:00,59.5,20.7,29.98,SSE,168,5.8,8.1,22,0.00,,---,0.00,VWS V14.00,2013-03-31 21:03:00,
2013-03-31 14:04:00,59.5,20.7,29.98,SSE,159,5.4,5.8,22,0.00,,---,0.00,VWS V14.00,2013-03-31 21:04:00,
2013-03-31 14:07:00,76.8,22.3,30.01,SE,143,7.6,11.9,13,0.00,,---,0.00,VWS V14.00,2013-03-31 21:07:00,
2013-03-31 14:12:00,77.2,22.6,30.01,South,189,10.1,11.0,13,0.00,,---,0.00,VWS V14.00,2013-03-31 21:12:00,
2013-03-31 14:17:00,77.0,22.4,30.01,SE,137,8.3,8.3,13,0.00,,---,0.00,VWS V14.00,2013-03-31 21:17:00,
2013-03-31 14:22:00,77.0,22.4,30.01,SSE,151,12.8,12.8,13,0.00,,---,0.00,VWS V14.00,2013-03-31 21:22:00,
2013-03-31 14:28:00,77.0,22.4,30.01,SSE,156,8.7,11.4,13,0.00,,---,0.00,VWS V14.00,2013-03-31 21:28:00,
2013-03-31 14:31:00,58.8,22.1,29.98,South,181,5.8,5.8,24,0.00,,---,0.00,VWS V14.00,2013-03-31 21:31:00,
2013-03-31 14:32:00,58.6,22.0,29.98,South,181,3.6,3.6,24,0.00,,---,0.00,VWS V14.00,2013-03-31 21:32:00,
2013-03-31 14:33:00,77.4,22.7,30.01,SE,145,10.1,10.5,13,0.00,,---,0.00,VWS V14.00,2013-03-31 21:33:00,
2013-03-31 14:36:00,58.5,21.8,29.98,South,185,4.9,5.4,24,0.00,,---,0.00,VWS V14.00,2013-03-31 21:36:00,
2013-03-31 14:37:00,58.5,21.8,29.98,South,185,3.1,5.4,24,0.00,,---,0.00,VWS V14.00,2013-03-31 21:37:00,
2013-03-31 14:38:00,77.5,22.9,30.01,SE,136,5.4,5.4,13,0.00,,---,0.00,VWS V14.00,2013-03-31 21:38:00,
2013-03-31 14:39:00,58.5,21.8,29.98,South,190,4.0,5.4,24,0.00,,---,0.00,VWS V14.00,2013-03-31 21:39:00,
2013-03-31 14:40:00,58.3,21.7,29.98,South,190,2.7,4.0,24,0.00,,---,0.00,VWS V14.00,2013-03-31 21:40:00,
2013-03-31 14:43:00,77.5,22.9,30.01,South,184,8.3,8.3,13,0.00,,---,0.00,VWS V14.00,2013-03-31 21:43:00,
2013-03-31 14:48:00,77.7,23.0,30.01,SSE,162,6.3,12.3,13,0.00,,---,0.00,VWS V14.00,2013-03-31 21:48:00,
2013-03-31 14:53:00,77.9,23.1,30.01,SSE,152,19.2,19.2,13,0.00,,---,0.00,VWS V14.00,2013-03-31 21:53:00,
2013-03-31 14:58:00,77.7,23.0,30.01,South,180,15.0,15.0,13,0.00,,---,0.00,VWS V14.00,2013-03-31 21:58:00,
2013-03-31 15:03:00,77.5,22.9,30.01,SE,128,10.5,14.5,13,0.00,,---,0.00,VWS V14.00,2013-03-31 22:03:00,
2013-03-31 15:08:00,77.0,22.4,30.01,South,171,11.0,17.4,13,0.00,,---,0.00,VWS V14.00,2013-03-31 22:08:00,
2013-03-31 15:13:00,77.2,22.6,30.01,SSE,153,5.8,5.8,13,0.00,,---,0.00,VWS V14.00,2013-03-31 22:13:00,
2013-03-31 15:18:00,77.5,22.9,30.01,SSE,157,5.8,10.5,13,0.00,,---,0.00,VWS V14.00,2013-03-31 22:18:00,
2013-03-31 15:23:00,77.5,22.9,29.98,SSE,159,5.4,8.7,13,0.00,,---,0.00,VWS V14.00,2013-03-31 22:23:00,
2013-03-31 15:28:00,77.0,22.4,29.98,SE,139,8.3,11.0,13,0.00,,---,0.00,VWS V14.00,2013-03-31 22:28:00,
2013-03-31 15:33:00,76.6,22.1,29.98,South,176,7.6,10.1,13,0.00,,---,0.00,VWS V14.00,2013-03-31 22:33:00,
2013-03-31 15:38:00,77.0,22.4,29.98,SE,134,11.0,11.0,13,0.00,,---,0.00,VWS V14.00,2013-03-31 22:38:00,
2013-03-31 15:39:00,56.8,23.2,29.98,South,180,4.0,4.0,27,0.00,,---,0.00,VWS V14.00,2013-03-31 22:39:00,
2013-03-31 15:40:00,56.8,23.2,29.98,South,179,3.6,4.9,27,0.00,,---,0.00,VWS V14.00,2013-03-31 22:40:00,
2013-03-31 15:41:00,56.8,23.2,29.98,South,179,3.6,3.6,27,0.00,,---,0.00,VWS V14.00,2013-03-31 22:41:00,
2013-03-31 15:42:00,56.8,23.2,29.98,South,179,2.7,3.6,27,0.00,,---,0.00,VWS V14.00,2013-03-31 22:42:00,
2013-03-31 15:43:00,76.8,22.3,29.98,South,181,7.6,8.1,13,0.00,,---,0.00,VWS V14.00,2013-03-31 22:43:00,
2013-03-31 15:48:00,77.2,22.6,29.98,SSE,153,6.3,7.6,13,0.00,,---,0.00,VWS V14.00,2013-03-31 22:48:00,
2013-03-31 15:53:00,77.7,23.0,29.98,SSE,148,8.3,8.3,13,0.00,,---,0.00,VWS V14.00,2013-03-31 22:53:00,
2013-03-31 15:58:00,77.9,23.1,29.98,SSE,167,8.1,11.0,13,0.00,,---,0.00,VWS V14.00,2013-03-31 22:58:00,
2013-03-31 16:03:00,77.2,22.6,29.98,SSE,150,10.5,11.0,13,0.00,,---,0.00,VWS V14.00,2013-03-31 23:03:00,
2013-03-31 16:08:00,76.8,22.3,29.98,South,190,11.4,11.4,13,0.00,,---,0.00,VWS V14.00,2013-03-31 23:08:00,
2013-03-31 16:13:00,76.5,22.0,29.98,SSE,147,14.5,14.5,13,0.00,,---,0.00,VWS V14.00,2013-03-31 23:13:00,
2013-03-31 16:18:00,75.7,21.5,29.98,SSE,158,10.1,14.5,13,0.00,,---,0.00,VWS V14.00,2013-03-31 23:18:00,
2013-03-31 16:23:00,75.7,21.5,29.98,SSE,156,8.1,8.3,13,0.00,,---,0.00,VWS V14.00,2013-03-31 23:23:00,
2013-03-31 16:28:00,75.9,21.6,29.98,SSE,151,8.3,8.3,13,0.00,,---,0.00,VWS V14.00,2013-03-31 23:28:00,
2013-03-31 16:31:00,54.7,23.1,30.01,South,183,2.2,2.2,29,0.00,,---,0.00,VWS V14.00,2013-03-31 23:31:00,
2013-03-31 16:32:00,54.7,23.9,30.01,South,183,3.1,3.1,30,0.00,,---,0.00,VWS V14.00,2013-03-31 23:32:00,
2013-03-31 16:33:00,75.9,21.6,29.98,SSW,194,14.1,14.1,13,0.00,,---,0.00,VWS V14.00,2013-03-31 23:33:00,
2013-03-31 16:34:00,54.5,23.7,30.01,South,183,2.7,3.6,30,0.00,,---,0.00,VWS V14.00,2013-03-31 23:34:00,
2013-03-31 16:35:00,54.5,23.7,30.01,South,183,2.2,2.7,30,0.00,,---,0.00,VWS V14.00,2013-03-31 23:35:00,
2013-03-31 16:36:00,54.5,23.7,30.01,South,183,2.2,2.7,30,0.00,,---,0.00,VWS V14.00,2013-03-31 23:36:00,
2013-03-31 16:38:00,75.7,21.5,29.98,SSE,166,8.1,9.2,13,0.00,,---,0.00,VWS V14.00,2013-03-31 23:38:00,
2013-03-31 16:43:00,75.4,21.2,29.98,SE,138,11.0,11.0,13,0.00,,---,0.00,VWS V14.00,2013-03-31 23:43:00,
2013-03-31 16:48:00,75.4,21.2,29.98,SSE,165,5.4,8.1,13,0.00,,---,0.00,VWS V14.00,2013-03-31 23:48:00,
2013-03-31 16:53:00,75.6,21.3,29.98,SSE,158,10.1,11.9,13,0.00,,---,0.00,VWS V14.00,2013-03-31 23:53:00,
2013-03-31 16:58:00,75.6,21.3,29.98,South,170,13.2,14.5,13,0.00,,---,0.00,VWS V14.00,2013-03-31 23:58:00,
2013-03-31 17:03:00,75.4,21.2,29.98,SSE,151,5.8,12.8,13,0.00,,---,0.00,VWS V14.00,2013-04-01 00:03:00,
2013-03-31 17:08:00,75.2,21.0,29.98,South,179,10.5,12.3,13,0.00,,---,0.00,VWS V14.00,2013-04-01 00:08:00,
2013-03-31 17:13:00,75.2,21.0,29.98,South,175,11.0,11.0,13,0.00,,---,0.00,VWS V14.00,2013-04-01 00:13:00,
2013-03-31 17:18:00,75.0,20.9,29.98,South,179,10.5,11.0,13,0.00,,---,0.00,VWS V14.00,2013-04-01 00:18:00,
2013-03-31 17:23:00,74.8,20.7,29.98,SE,145,4.5,6.3,13,0.00,,---,0.00,VWS V14.00,2013-04-01 00:23:00,
2013-03-31 17:28:00,74.8,20.7,29.98,SE,145,8.1,8.3,13,0.00,,---,0.00,VWS V14.00,2013-04-01 00:28:00,
2013-03-31 17:29:00,54.0,26.2,30.01,South,178,5.4,6.3,34,0.00,,---,0.00,VWS V14.00,2013-04-01 00:29:00,
2013-03-31 17:30:00,54.0,26.2,30.01,SSW,199,6.3,6.3,34,0.00,,---,0.00,VWS V14.00,2013-04-01 00:30:00,
2013-03-31 17:31:00,54.0,26.2,30.01,SSW,199,6.3,6.3,34,0.00,,---,0.00,VWS V14.00,2013-04-01 00:31:00,
2013-03-31 17:32:00,54.0,26.2,30.01,South,177,3.6,6.3,34,0.00,,---,0.00,VWS V14.00,2013-04-01 00:32:00,
2013-03-31 17:33:00,74.8,20.7,29.98,South,171,7.6,8.1,13,0.00,,---,0.00,VWS V14.00,2013-04-01 00:33:00,
2013-03-31 17:34:00,54.0,26.2,30.01,South,186,5.8,5.8,34,0.00,,---,0.00,VWS V14.00,2013-04-01 00:34:00,
2013-03-31 17:35:00,54.0,26.2,30.01,South,184,3.6,5.8,34,0.00,,---,0.00,VWS V14.00,2013-04-01 00:35:00,
2013-03-31 17:36:00,54.0,26.2,30.01,South,185,5.8,5.8,34,0.00,,---,0.00,VWS V14.00,2013-04-01 00:36:00,
2013-03-31 17:37:00,54.0,26.2,30.01,South,180,5.8,5.8,34,0.00,,---,0.00,VWS V14.00,2013-04-01 00:37:00,
2013-03-31 17:38:00,74.7,20.6,29.98,SSE,152,8.7,8.7,13,0.00,,---,0.00,VWS V14.00,2013-04-01 00:38:00,
2013-03-31 17:43:00,74.7,20.6,29.98,SSE,166,7.6,8.1,13,0.00,,---,0.00,VWS V14.00,2013-04-01 00:43:00,
2013-03-31 17:48:00,74.5,20.5,29.98,SSE,155,5.4,8.3,13,0.00,,---,0.00,VWS V14.00,2013-04-01 00:48:00,
2013-03-31 17:53:00,74.1,20.2,29.98,South,185,8.3,8.3,13,0.00,,---,0.00,VWS V14.00,2013-04-01 00:53:00,
2013-03-31 17:54:00,53.8,25.4,30.01,South,178,3.6,5.4,33,0.00,,---,0.00,VWS V14.00,2013-04-01 00:54:00,
2013-03-31 17:55:00,53.8,25.4,30.01,South,178,3.6,5.4,33,0.00,,---,0.00,VWS V14.00,2013-04-01 00:55:00,
2013-03-31 17:56:00,53.8,26.1,30.01,South,178,3.6,4.0,34,0.00,,---,0.00,VWS V14.00,2013-04-01 00:56:00,
2013-03-31 17:57:00,53.8,26.1,30.01,South,178,3.1,3.6,34,0.00,,---,0.00,VWS V14.00,2013-04-01 00:57:00,
2013-03-31 17:58:00,74.1,20.2,29.98,SSE,166,10.5,13.6,13,0.00,,---,0.00,VWS V14.00,2013-04-01 00:58:00,
2013-03-31 17:59:00,53.8,25.4,30.01,South,178,3.1,4.9,33,0.00,,---,0.00,VWS V14.00,2013-04-01 00:59:00,
2013-03-31 18:00:00,53.8,25.4,30.01,South,178,2.7,4.0,33,0.00,,---,0.00,VWS V14.00,2013-04-01 01:00:00,
2013-03-31 18:01:00,53.6,25.2,30.01,South,178,2.7,4.0,33,0.00,,---,0.00,VWS V14.00,2013-04-01 01:01:00,
2013-03-31 18:03:00,73.8,19.9,29.98,SSE,158,6.3,8.3,13,0.00,,---,0.00,VWS V14.00,2013-04-01 01:03:00,
2013-03-31 18:08:00,73.6,19.8,29.98,SSW,212,5.8,5.8,13,0.00,,---,0.00,VWS V14.00,2013-04-01 01:08:00,
2013-03-31 18:13:00,73.0,21.1,29.98,SSE,168,8.1,11.0,14,0.00,,---,0.00,VWS V14.00,2013-04-01 01:13:00,
2013-03-31 18:18:00,72.5,20.6,29.98,South,178,5.4,8.7,14,0.00,,---,0.00,VWS V14.00,2013-04-01 01:18:00,
2013-03-31 18:23:00,72.5,20.6,29.98,SSE,160,7.6,7.6,14,0.00,,---,0.00,VWS V14.00,2013-04-01 01:23:00,
2013-03-31 18:28:00,72.3,20.5,29.98,SSE,161,6.3,8.1,14,0.00,,---,0.00,VWS V14.00,2013-04-01 01:28:00,
2013-03-31 18:33:00,72.0,20.2,29.98,SW,226,7.6,7.6,14,0.00,,---,0.00,VWS V14.00,2013-04-01 01:33:00,
2013-03-31 18:38:00,71.8,20.1,29.98,SSW,198,4.5,6.3,14,0.00,,---,0.00,VWS V14.00,2013-04-01 01:38:00,
2013-03-31 18:43:00,71.2,19.6,29.98,South,186,6.3,8.1,14,0.00,,---,0.00,VWS V14.00,2013-04-01 01:43:00,
2013-03-31 18:48:00,70.7,19.2,29.98,SSE,166,5.4,8.1,14,0.00,,---,0.00,VWS V14.00,2013-04-01 01:48:00,
2013-03-31 18:53:00,70.3,18.9,29.95,South,169,5.4,5.4,14,0.00,,---,0.00,VWS V14.00,2013-04-01 01:53:00,
2013-03-31 18:56:00,52.3,26.2,30.01,South,173,2.7,2.7,36,0.00,,---,0.00,VWS V14.00,2013-04-01 01:56:00,
2013-03-31 18:57:00,52.3,26.2,30.01,South,173,2.7,2.7,36,0.00,,---,0.00,VWS V14.00,2013-04-01 01:57:00,
2013-03-31 18:58:00,70.0,18.6,29.95,SSE,168,6.3,6.3,14,0.00,,---,0.00,VWS V14.00,2013-04-01 01:58:00,
2013-03-31 18:59:00,52.3,26.2,30.01,South,173,2.7,3.6,36,0.00,,---,0.00,VWS V14.00,2013-04-01 01:59:00,
2013-03-31 19:00:00,52.3,26.2,30.01,South,173,2.7,2.7,36,0.00,,---,0.00,VWS V14.00,2013-04-01 02:00:00,
2013-03-31 19:01:00,52.3,26.2,30.01,South,173,2.7,2.7,36,0.00,,---,0.00,VWS V14.00,2013-04-01 02:01:00,
2013-03-31 19:02:00,52.3,26.2,30.01,South,173,4.0,4.0,36,0.00,,---,0.00,VWS V14.00,2013-04-01 02:02:00,
2013-03-31 19:03:00,69.8,18.5,29.95,SSE,157,6.3,8.7,14,0.00,,---,0.00,VWS V14.00,2013-04-01 02:03:00,
2013-03-31 19:05:00,52.3,26.2,30.01,South,174,2.7,3.1,36,0.00,,---,0.00,VWS V14.00,2013-04-01 02:05:00,
2013-03-31 19:08:00,69.6,20.0,29.95,SSE,167,4.5,5.8,15,0.00,,---,0.00,VWS V14.00,2013-04-01 02:08:00,
2013-03-31 19:13:00,69.4,19.8,29.95,South,174,5.4,7.6,15,0.00,,---,0.00,VWS V14.00,2013-04-01 02:13:00,
2013-03-31 19:18:00,69.3,19.7,29.95,South,169,3.6,5.4,15,0.00,,---,0.00,VWS V14.00,2013-04-01 02:18:00,
2013-03-31 19:23:00,69.1,19.5,29.95,SSE,159,4.0,6.3,15,0.00,,---,0.00,VWS V14.00,2013-04-01 02:23:00,
2013-03-31 19:28:00,69.1,19.5,29.95,SSE,159,5.8,5.8,15,0.00,,---,0.00,VWS V14.00,2013-04-01 02:28:00,
2013-03-31 19:33:00,68.9,19.4,29.95,South,177,7.6,7.6,15,0.00,,---,0.00,VWS V14.00,2013-04-01 02:33:00,
2013-03-31 19:38:00,68.7,19.2,29.95,South,184,5.4,6.3,15,0.00,,---,0.00,VWS V14.00,2013-04-01 02:38:00,
2013-03-31 19:40:00,55.0,25.0,30.04,SSE,167,3.1,3.1,31,0.00,,---,0.00,VWS V14.00,2013-04-01 02:40:00,
2013-03-31 19:41:00,55.0,25.0,30.04,SSE,167,2.7,3.1,31,0.00,,---,0.00,VWS V14.00,2013-04-01 02:41:00,
2013-03-31 19:42:00,55.2,25.1,30.04,SSE,167,4.5,4.5,31,0.00,,---,0.00,VWS V14.00,2013-04-01 02:42:00,
2013-03-31 19:43:00,68.5,19.1,29.95,SSE,165,5.4,8.1,15,0.00,,---,0.00,VWS V14.00,2013-04-01 02:43:00,
2013-03-31 19:44:00,55.4,25.3,30.04,South,175,4.0,5.4,31,0.00,,---,0.00,VWS V14.00,2013-04-01 02:44:00,
2013-03-31 19:45:00,55.4,24.5,30.04,South,177,3.6,4.9,30,0.00,,---,0.00,VWS V14.00,2013-04-01 02:45:00,
2013-03-31 19:46:00,55.6,24.7,30.04,South,182,8.1,8.1,30,0.00,,---,0.00,VWS V14.00,2013-04-01 02:46:00,
2013-03-31 19:47:00,55.6,24.7,30.04,SSE,165,5.4,8.1,30,0.00,,---,0.00,VWS V14.00,2013-04-01 02:47:00,
2013-03-31 19:48:00,68.4,19.0,29.95,SSE,168,4.0,4.0,15,0.00,,---,0.00,VWS V14.00,2013-04-01 02:48:00,
2013-03-31 19:49:00,55.8,24.8,30.04,SSE,168,5.4,5.4,30,0.00,,---,0.00,VWS V14.00,2013-04-01 02:49:00,
2013-03-31 19:50:00,55.8,24.8,30.04,SSE,168,3.1,5.4,30,0.00,,---,0.00,VWS V14.00,2013-04-01 02:50:00,
2013-03-31 19:51:00,55.9,25.0,30.04,SSE,168,3.6,3.6,30,0.00,,---,0.00,VWS V14.00,2013-04-01 02:51:00,
2013-03-31 19:52:00,55.9,25.0,30.04,South,180,6.3,6.3,30,0.00,,---,0.00,VWS V14.00,2013-04-01 02:52:00,
2013-03-31 19:53:00,68.4,19.0,29.98,SE,141,4.5,4.5,15,0.00,,---,0.00,VWS V14.00,2013-04-01 02:53:00,
2013-03-31 19:54:00,56.1,24.3,30.04,South,187,6.3,6.3,29,0.00,,---,0.00,VWS V14.00,2013-04-01 02:54:00,
2013-03-31 19:55:00,56.1,23.5,30.04,SSE,158,5.4,5.4,28,0.00,,---,0.00,VWS V14.00,2013-04-01 02:55:00,
2013-03-31 19:56:00,56.3,23.6,30.04,SSE,157,8.7,8.7,28,0.00,,---,0.00,VWS V14.00,2013-04-01 02:56:00,
2013-03-31 19:58:00,68.2,18.8,29.98,SE,141,4.0,4.0,15,0.00,,---,0.00,VWS V14.00,2013-04-01 02:58:00,
2013-03-31 20:02:00,56.7,23.1,30.04,SSE,158,5.8,6.3,27,0.00,,---,0.00,VWS V14.00,2013-04-01 03:02:00,
2013-03-31 20:03:00,68.2,18.8,29.98,SSE,157,7.6,7.6,15,0.00,,---,0.00,VWS V14.00,2013-04-01 03:03:00,
2013-03-31 20:04:00,56.8,23.2,30.04,SSE,166,3.1,7.2,27,0.00,,---,0.00,VWS V14.00,2013-04-01 03:04:00,
2013-03-31 20:05:00,56.8,23.2,30.04,SSE,161,6.3,6.3,27,0.00,,---,0.00,VWS V14.00,2013-04-01 03:05:00,
2013-03-31 20:06:00,56.8,23.2,30.04,South,176,5.8,6.3,27,0.00,,---,0.00,VWS V14.00,2013-04-01 03:06:00,
2013-03-31 20:07:00,57.0,22.5,30.04,SSE,151,5.4,6.3,26,0.00,,---,0.00,VWS V14.00,2013-04-01 03:07:00,
2013-03-31 20:08:00,68.0,18.7,29.98,SSE,163,5.8,5.8,15,0.00,,---,0.00,VWS V14.00,2013-04-01 03:08:00,
2013-03-31 20:09:00,57.2,21.7,30.04,South,179,3.6,7.6,25,0.00,,---,0.00,VWS V14.00,2013-04-01 03:09:00,
2013-03-31 20:10:00,57.2,21.7,30.04,South,183,6.3,6.3,25,0.00,,---,0.00,VWS V14.00,2013-04-01 03:10:00,
2013-03-31 20:11:00,57.4,21.9,30.04,South,171,3.1,6.3,25,0.00,,---,0.00,VWS V14.00,2013-04-01 03:11:00,
2013-03-31 20:12:00,57.4,21.9,30.04,South,171,5.4,5.4,25,0.00,,---,0.00,VWS V14.00,2013-04-01 03:12:00,
2013-03-31 20:13:00,68.0,18.7,29.98,South,172,6.3,8.1,15,0.00,,---,0.00,VWS V14.00,2013-04-01 03:13:00,
2013-03-31 20:14:00,57.6,22.0,30.04,SSE,156,5.8,6.3,25,0.00,,---,0.00,VWS V14.00,2013-04-01 03:14:00,
2013-03-31 20:17:00,57.7,22.2,30.04,SSE,161,5.8,5.8,25,0.00,,---,0.00,VWS V14.00,2013-04-01 03:17:00,
2013-03-31 20:18:00,67.8,18.5,29.98,SSE,156,5.4,7.6,15,0.00,,---,0.00,VWS V14.00,2013-04-01 03:18:00,
2013-03-31 20:19:00,57.9,22.3,30.04,SE,146,6.3,8.7,25,0.00,,---,0.00,VWS V14.00,2013-04-01 03:19:00,
2013-03-31 20:20:00,57.9,21.4,30.04,South,184,6.3,7.6,24,0.00,,---,0.00,VWS V14.00,2013-04-01 03:20:00,
2013-03-31 20:21:00,57.9,21.4,30.04,South,174,4.0,6.3,24,0.00,,---,0.00,VWS V14.00,2013-04-01 03:21:00,
2013-03-31 20:22:00,58.1,21.5,30.04,SSE,163,3.6,5.8,24,0.00,,---,0.00,VWS V14.00,2013-04-01 03:22:00,
2013-03-31 20:23:00,67.6,18.4,29.98,SSE,162,8.3,8.3,15,0.00,,---,0.00,VWS V14.00,2013-04-01 03:23:00,
2013-03-31 20:24:00,58.1,21.5,30.04,SSE,163,3.6,3.6,24,0.00,,---,0.00,VWS V14.00,2013-04-01 03:24:00,
2013-03-31 20:28:00,67.6,18.4,29.98,SE,143,7.6,8.3,15,0.00,,---,0.00,VWS V14.00,2013-04-01 03:28:00,
2013-03-31 20:33:00,67.6,18.4,29.98,South,170,7.6,8.3,15,0.00,,---,0.00,VWS V14.00,2013-04-01 03:33:00,
2013-03-31 20:36:00,59.0,20.2,30.04,SSE,162,8.1,8.1,22,0.00,,---,0.00,VWS V14.00,2013-04-01 03:36:00,
2013-03-31 20:37:00,59.0,16.8,30.04,SSE,163,6.3,8.1,19,0.00,,---,0.00,VWS V14.00,2013-04-01 03:37:00,
2013-03-31 20:38:00,67.5,18.2,29.98,SSE,160,6.3,10.1,15,0.00,,---,0.00,VWS V14.00,2013-04-01 03:38:00,
2013-03-31 20:39:00,59.2,17.0,30.04,SSW,211,14.5,14.5,19,0.00,,---,0.00,VWS V14.00,2013-04-01 03:39:00,
2013-03-31 20:40:00,59.2,17.0,30.04,SSE,155,8.3,14.5,19,0.00,,---,0.00,VWS V14.00,2013-04-01 03:40:00,
2013-03-31 20:41:00,59.2,17.0,30.04,SSW,195,10.1,10.1,19,0.00,,---,0.00,VWS V14.00,2013-04-01 03:41:00,
2013-03-31 20:43:00,67.3,18.1,29.98,South,169,8.1,8.1,15,0.00,,---,0.00,VWS V14.00,2013-04-01 03:43:00,
2013-03-31 20:48:00,67.3,18.1,29.98,SSE,148,10.1,10.1,15,0.00,,---,0.00,VWS V14.00,2013-04-01 03:48:00,
2013-03-31 20:53:00,67.1,17.9,29.98,SSE,159,4.0,4.0,15,0.00,,---,0.00,VWS V14.00,2013-04-01 03:53:00,
2013-03-31 20:58:00,66.9,17.8,29.98,SSE,167,8.3,8.3,15,0.00,,---,0.00,VWS V14.00,2013-04-01 03:58:00,
2013-03-31 20:59:00,59.4,17.1,30.04,SSE,160,6.3,8.1,19,0.00,,---,0.00,VWS V14.00,2013-04-01 03:59:00,
2013-03-31 21:00:00,59.4,17.1,30.04,SE,145,5.4,6.3,19,0.00,,---,0.00,VWS V14.00,2013-04-01 04:00:00,
2013-03-31 21:01:00,59.5,17.3,30.04,SSE,160,11.0,11.0,19,0.00,,---,0.00,VWS V14.00,2013-04-01 04:01:00,
2013-03-31 21:02:00,66.7,17.6,29.98,SSE,156,5.4,6.3,15,0.00,,---,0.00,VWS V14.00,2013-04-01 04:02:00,
2013-03-31 21:03:00,59.5,17.3,30.04,SSE,154,7.6,9.6,19,0.00,,---,0.00,VWS V14.00,2013-04-01 04:03:00,
2013-03-31 21:05:00,59.5,17.3,30.04,SSW,192,10.1,10.1,19,0.00,,---,0.00,VWS V14.00,2013-04-01 04:05:00,
2013-03-31 21:06:00,59.5,17.3,30.04,SSW,196,6.7,6.7,19,0.00,,---,0.00,VWS V14.00,2013-04-01 04:06:00,
2013-03-31 21:07:00,66.6,17.5,29.98,SSE,153,3.6,4.9,15,0.00,,---,0.00,VWS V14.00,2013-04-01 04:07:00,
2013-03-31 21:08:00,59.5,17.3,30.04,South,174,10.1,10.1,19,0.00,,---,0.00,VWS V14.00,2013-04-01 04:08:00,
2013-03-31 21:09:00,59.7,17.4,30.04,SSW,205,10.5,10.5,19,0.00,,---,0.00,VWS V14.00,2013-04-01 04:09:00,
2013-03-31 21:10:00,59.7,17.4,30.04,SW,219,8.7,10.5,19,0.00,,---,0.00,VWS V14.00,2013-04-01 04:10:00,
2013-03-31 21:13:00,66.4,17.4,29.98,SE,136,6.3,8.3,15,0.00,,---,0.00,VWS V14.00,2013-04-01 04:13:00,
2013-03-31 21:18:00,66.2,17.2,29.98,SSE,167,7.2,7.2,15,0.00,,---,0.00,VWS V14.00,2013-04-01 04:18:00,
2013-03-31 21:23:00,66.0,17.1,29.98,SSE,156,7.6,7.6,15,0.00,,---,0.00,VWS V14.00,2013-04-01 04:23:00,
2013-03-31 21:28:00,65.8,16.9,29.98,SSE,159,5.4,8.7,15,0.00,,---,0.00,VWS V14.00,2013-04-01 04:28:00,
2013-03-31 21:33:00,65.7,16.8,29.98,SSE,165,5.4,5.4,15,0.00,,---,0.00,VWS V14.00,2013-04-01 04:33:00,
2013-03-31 21:34:00,59.7,14.9,30.04,SSE,152,5.4,8.7,17,0.00,,---,0.00,VWS V14.00,2013-04-01 04:34:00,
2013-03-31 21:35:00,59.7,14.9,30.04,SSE,167,10.5,10.5,17,0.00,,---,0.00,VWS V14.00,2013-04-01 04:35:00,
2013-03-31 21:36:00,59.7,14.9,30.04,South,179,7.6,13.2,17,0.00,,---,0.00,VWS V14.00,2013-04-01 04:36:00,
2013-03-31 21:37:00,59.7,14.9,30.04,SSE,168,8.1,13.2,17,0.00,,---,0.00,VWS V14.00,2013-04-01 04:37:00,
2013-03-31 21:38:00,65.7,16.8,29.98,South,181,5.8,8.1,15,0.00,,---,0.00,VWS V14.00,2013-04-01 04:38:00,
2013-03-31 21:39:00,59.9,17.6,30.04,South,173,8.7,8.7,19,0.00,,---,0.00,VWS V14.00,2013-04-01 04:39:00,
2013-03-31 21:43:00,65.5,16.6,29.98,South,179,6.3,6.3,15,0.00,,---,0.00,VWS V14.00,2013-04-01 04:43:00,
2013-03-31 21:48:00,65.3,16.5,29.98,SSE,162,3.6,7.6,15,0.00,,---,0.00,VWS V14.00,2013-04-01 04:48:00,
2013-03-31 21:53:00,65.1,16.4,29.98,SE,140,5.8,5.8,15,0.00,,---,0.00,VWS V14.00,2013-04-01 04:53:00,
2013-03-31 21:58:00,64.9,16.2,29.98,SE,145,3.1,4.9,15,0.00,,---,0.00,VWS V14.00,2013-04-01 04:58:00,
2013-03-31 22:03:00,64.8,16.1,29.98,SSE,158,5.4,8.3,15,0.00,,---,0.00,VWS V14.00,2013-04-01 05:03:00,
2013-03-31 22:04:00,60.6,15.6,30.04,SSE,153,7.6,8.1,17,0.00,,---,0.00,VWS V14.00,2013-04-01 05:04:00,
2013-03-31 22:05:00,60.6,15.6,30.04,South,183,8.3,11.0,17,0.00,,---,0.00,VWS V14.00,2013-04-01 05:05:00,
2013-03-31 22:06:00,60.8,14.4,30.04,SE,129,4.0,8.7,16,0.00,,---,0.00,VWS V14.00,2013-04-01 05:06:00,
2013-03-31 22:07:00,61.0,14.5,30.04,SSE,162,8.7,8.7,16,0.00,,---,0.00,VWS V14.00,2013-04-01 05:07:00,
2013-03-31 22:08:00,64.6,15.9,29.98,SSE,153,4.0,5.4,15,0.00,,---,0.00,VWS V14.00,2013-04-01 05:08:00,
2013-03-31 22:13:00,64.4,15.8,29.98,SSE,168,3.6,8.1,15,0.00,,---,0.00,VWS V14.00,2013-04-01 05:13:00,
2013-03-31 22:17:00,61.2,14.6,30.04,SE,141,11.0,11.0,16,0.00,,---,0.00,VWS V14.00,2013-04-01 05:17:00,
2013-03-31 22:18:00,64.2,17.1,29.98,South,173,5.4,5.4,16,0.00,,---,0.00,VWS V14.00,2013-04-01 05:18:00,
2013-03-31 22:19:00,61.3,14.8,30.04,SSE,157,8.7,8.7,16,0.00,,---,0.00,VWS V14.00,2013-04-01 05:19:00,
2013-03-31 22:20:00,61.3,14.8,30.04,SSE,167,8.7,8.7,16,0.00,,---,0.00,VWS V14.00,2013-04-01 05:20:00,
2013-03-31 22:23:00,64.0,17.0,29.98,SSE,153,4.9,5.8,16,0.00,,---,0.00,VWS V14.00,2013-04-01 05:23:00,
2013-03-31 22:28:00,63.9,16.8,29.98,SSE,156,5.8,5.8,16,0.00,,---,0.00,VWS V14.00,2013-04-01 05:28:00,
2013-03-31 22:33:00,63.9,16.8,29.98,SSE,156,5.4,5.8,16,0.00,,---,0.00,VWS V14.00,2013-04-01 05:33:00,
2013-03-31 22:38:00,63.7,16.7,29.98,SE,145,3.1,3.6,16,0.00,,---,0.00,VWS V14.00,2013-04-01 05:38:00,
2013-03-31 22:43:00,63.5,16.5,29.98,SSE,155,4.0,5.8,16,0.00,,---,0.00,VWS V14.00,2013-04-01 05:43:00,
2013-03-31 22:48:00,63.5,16.5,29.98,SSE,154,6.3,6.3,16,0.00,,---,0.00,VWS V14.00,2013-04-01 05:48:00,
2013-03-31 22:53:00,63.3,16.4,29.98,SSE,167,4.0,6.3,16,0.00,,---,0.00,VWS V14.00,2013-04-01 05:53:00,
2013-03-31 22:58:00,63.0,16.1,29.98,SE,145,3.6,5.4,16,0.00,,---,0.00,VWS V14.00,2013-04-01 05:58:00,
2013-03-31 23:00:00,63.7,16.7,30.07,SSE,158,8.3,11.0,16,0.00,,---,0.00,VWS V14.00,2013-04-01 06:00:00,
2013-03-31 23:01:00,63.7,16.7,30.07,SSE,150,8.1,8.1,16,0.00,,---,0.00,VWS V14.00,2013-04-01 06:01:00,
2013-03-31 23:02:00,63.7,16.7,30.07,SSE,152,8.1,8.7,16,0.00,,---,0.00,VWS V14.00,2013-04-01 06:02:00,
2013-03-31 23:03:00,62.8,15.9,29.98,SSE,167,4.0,4.9,16,0.00,,---,0.00,VWS V14.00,2013-04-01 06:03:00,
2013-03-31 23:04:00,63.9,16.8,30.07,SSE,152,5.8,10.5,16,0.00,,---,0.00,VWS V14.00,2013-04-01 06:04:00,
2013-03-31 23:05:00,63.9,16.8,30.07,SSE,158,6.3,6.3,16,0.00,,---,0.00,VWS V14.00,2013-04-01 06:05:00,
2013-03-31 23:08:00,62.4,15.7,29.98,South,175,5.8,5.8,16,0.00,,---,0.00,VWS V14.00,2013-04-01 06:08:00,
2013-03-31 23:09:00,63.9,16.8,30.04,SSW,213,7.6,8.7,16,0.00,,---,0.00,VWS V14.00,2013-04-01 06:09:00,
2013-03-31 23:10:00,63.9,16.8,30.04,South,184,10.1,10.1,16,0.00,,---,0.00,VWS V14.00,2013-04-01 06:10:00,
2013-03-31 23:11:00,63.9,16.8,30.04,SSW,197,13.6,13.6,16,0.00,,---,0.00,VWS V14.00,2013-04-01 06:11:00,
2013-03-31 23:12:00,63.9,16.8,30.04,South,180,8.1,13.6,16,0.00,,---,0.00,VWS V14.00,2013-04-01 06:12:00,
2013-03-31 23:13:00,62.1,15.4,29.98,South,170,4.9,6.3,16,0.00,,---,0.00,VWS V14.00,2013-04-01 06:13:00,
2013-03-31 23:14:00,63.9,16.8,30.04,SE,142,6.3,10.1,16,0.00,,---,0.00,VWS V14.00,2013-04-01 06:14:00,
2013-03-31 23:18:00,61.9,15.2,29.98,SSE,163,3.6,4.9,16,0.00,,---,0.00,VWS V14.00,2013-04-01 06:18:00,
2013-03-31 23:23:00,61.7,15.1,29.98,SSE,157,6.3,6.3,16,0.00,,---,0.00,VWS V14.00,2013-04-01 06:23:00,
2013-03-31 23:28:00,61.5,14.9,29.98,South,172,5.4,5.4,16,0.00,,---,0.00,VWS V14.00,2013-04-01 06:28:00,
2013-03-31 23:31:00,64.6,15.9,30.04,SSE,151,4.0,11.0,15,0.00,,---,0.00,VWS V14.00,2013-04-01 06:31:00,
2013-03-31 23:32:00,64.8,16.1,30.04,SE,133,10.5,11.0,15,0.00,,---,0.00,VWS V14.00,2013-04-01 06:32:00,
2013-03-31 23:33:00,61.3,14.8,29.98,South,171,4.9,5.4,16,0.00,,---,0.00,VWS V14.00,2013-04-01 06:33:00,
2013-03-31 23:34:00,64.8,16.1,30.04,SSE,159,9.2,10.5,15,0.00,,---,0.00,VWS V14.00,2013-04-01 06:34:00,
2013-03-31 23:38:00,61.2,14.6,29.98,SSE,164,6.3,6.7,16,0.00,,---,0.00,VWS V14.00,2013-04-01 06:38:00,
2013-03-31 23:40:00,64.9,16.2,30.04,SSE,168,10.1,10.1,15,0.00,,---,0.00,VWS V14.00,2013-04-01 06:40:00,
2013-03-31 23:42:00,65.1,16.4,30.04,SE,133,7.6,10.5,15,0.00,,---,0.00,VWS V14.00,2013-04-01 06:42:00,
2013-03-31 23:43:00,61.0,14.5,29.98,SSE,159,6.3,6.3,16,0.00,,---,0.00,VWS V14.00,2013-04-01 06:43:00,
2013-03-31 23:44:00,65.1,16.4,30.04,SE,125,8.3,8.7,15,0.00,,---,0.00,VWS V14.00,2013-04-01 06:44:00,
2013-03-31 23:48:00,60.8,14.4,29.98,South,183,3.6,6.3,16,0.00,,---,0.00,VWS V14.00,2013-04-01 06:48:00,
2013-03-31 23:53:00,60.6,15.6,29.98,SSE,165,5.4,5.4,17,0.00,,---,0.00,VWS V14.00,2013-04-01 06:53:00,
2013-03-31 23:54:00,65.8,16.9,30.04,SSE,160,8.3,12.8,15,0.00,,---,0.00,VWS V14.00,2013-04-01 06:54:00,
2013-03-31 23:55:00,65.8,16.9,30.04,SSE,147,5.8,13.2,15,0.00,,---,0.00,VWS V14.00,2013-04-01 06:55:00,
2013-03-31 23:56:00,66.0,17.1,30.04,SSE,161,8.1,11.0,15,0.00,,---,0.00,VWS V14.00,2013-04-01 06:56:00,
2013-03-31 23:57:00,66.0,17.1,30.04,SSE,158,8.7,8.7,15,0.00,,---,0.00,VWS V14.00,2013-04-01 06:57:00,
2013-03-31 23:58:00,60.4,15.4,29.98,SSE,165,2.7,4.0,17,0.00,,---,0.00,VWS V14.00,2013-04-01 06:58:00,